Time;durP1;ratioP1;P1;durP2;ratioP2;P2;SDS_P1;SDS_P2;PMS_P1;PMS_P2;Temp;Humidity;BMP_temperature;BMP_pressure;BME280_temperature;BME280_humidity;BME280_pressure;Samples;Min_cycle;Max_cycle;Signal;HPM_P1;HPM_P2
2023/09/30 00:00:11;;;;;;;7.95;1.00;;;;;;;16.76;81.13;102099.25;7360601;19;20022;-65
2023/09/30 00:02:38;;;;;;;8.25;0.77;;;;;;;16.68;81.04;102103.56;7361501;19;20355;-65
2023/09/30 00:05:06;;;;;;;11.77;0.80;;;;;;;16.72;81.66;102111.19;7359639;19;20011;-64
2023/09/30 00:07:34;;;;;;;6.25;0.60;;;;;;;16.73;81.75;102113.69;7360815;19;20035;-64
2023/09/30 00:10:01;;;;;;;8.77;0.70;;;;;;;16.74;81.35;102118.03;7360426;19;21681;-65
2023/09/30 00:12:28;;;;;;;7.05;0.90;;;;;;;16.70;80.88;102111.38;7358647;19;20003;-65
2023/09/30 00:14:55;;;;;;;11.27;0.70;;;;;;;16.66;81.18;102117.97;7358304;19;20007;-64
2023/09/30 00:17:23;;;;;;;9.85;0.75;;;;;;;16.61;81.43;102130.91;7362734;19;20019;-65
2023/09/30 00:19:50;;;;;;;6.55;0.60;;;;;;;16.64;83.32;102130.63;7361240;19;20006;-63
2023/09/30 00:22:17;;;;;;;8.88;0.70;;;;;;;16.67;82.53;102139.09;7360183;19;20452;-66
2023/09/30 00:24:44;;;;;;;10.48;1.05;;;;;;;16.66;81.84;102148.06;7356336;19;20311;-65
2023/09/30 00:27:11;;;;;;;7.93;0.90;;;;;;;16.63;81.70;102121.81;7359468;19;20081;-65
2023/09/30 00:29:38;;;;;;;11.95;1.00;;;;;;;16.60;81.55;102116.00;7361881;19;20027;-65
2023/09/30 00:32:05;;;;;;;6.43;0.70;;;;;;;16.58;82.21;102121.44;7358018;19;20020;-65
2023/09/30 00:34:34;;;;;;;9.00;0.90;;;;;;;16.59;82.32;102116.97;7358344;19;20162;-64
2023/09/30 00:37:02;;;;;;;8.52;0.60;;;;;;;16.57;82.48;102124.22;7359167;19;20101;-64
2023/09/30 00:39:30;;;;;;;9.93;1.27;;;;;;;16.57;82.74;102124.22;7358404;19;20459;-65
2023/09/30 00:41:58;;;;;;;8.57;0.95;;;;;;;16.58;82.92;102129.44;7358499;19;20014;-64
2023/09/30 00:44:26;;;;;;;9.50;0.80;;;;;;;16.63;82.73;102134.25;7356742;19;20010;-67
2023/09/30 00:46:55;;;;;;;8.00;0.90;;;;;;;16.62;83.29;102141.41;7356910;19;20007;-64
2023/09/30 00:49:24;;;;;;;11.73;0.98;;;;;;;16.64;85.05;102136.75;7355794;19;20500;-65
2023/09/30 00:51:54;;;;;;;5.50;0.60;;;;;;;16.63;83.81;102132.44;7360075;19;20538;-63
2023/09/30 00:54:24;;;;;;;8.82;0.90;;;;;;;16.63;83.07;102131.59;7359252;19;20025;-64
2023/09/30 00:56:55;;;;;;;12.90;1.10;;;;;;;16.59;83.10;102127.59;7359401;19;20426;-65
2023/09/30 00:59:23;;;;;;;4.57;0.70;;;;;;;16.57;82.84;102132.19;7357055;19;20017;-64
2023/09/30 01:01:50;;;;;;;8.93;1.38;;;;;;;16.55;82.86;102126.22;7361961;19;20077;-65
2023/09/30 01:04:18;;;;;;;9.50;0.70;;;;;;;16.55;84.01;102123.56;7356151;19;20370;-65
2023/09/30 01:06:45;;;;;;;11.20;0.70;;;;;;;16.54;83.77;102120.09;7358735;19;20010;-64
2023/09/30 01:09:12;;;;;;;9.13;0.75;;;;;;;16.57;83.58;102110.94;7360412;19;20023;-64
2023/09/30 01:11:42;;;;;;;9.90;0.73;;;;;;;16.59;83.61;102111.66;7357581;19;20018;-64
2023/09/30 01:14:29;;;;;;;10.05;0.90;;;;;;;16.57;83.57;102137.50;7355764;19;20022;-64
2023/09/30 01:16:57;;;;;;;10.30;1.60;;;;;;;16.55;83.65;102132.38;7359192;19;20055;-64
2023/09/30 01:19:26;;;;;;;12.48;0.90;;;;;;;16.57;83.68;102137.50;7357483;19;20112;-65
2023/09/30 01:21:56;;;;;;;9.90;0.80;;;;;;;16.60;84.35;102137.25;7361776;19;20865;-64
2023/09/30 01:24:23;;;;;;;8.65;0.70;;;;;;;16.61;84.33;102138.88;7356136;19;20018;-63
2023/09/30 01:26:50;;;;;;;8.70;0.93;;;;;;;16.56;83.58;102135.84;7359407;19;20506;-64
2023/09/30 01:29:17;;;;;;;8.25;0.70;;;;;;;16.51;83.68;102128.34;7354048;19;20011;-65
2023/09/30 01:31:47;;;;;;;10.00;1.35;;;;;;;16.49;83.70;102126.88;7358831;19;20966;-64
2023/09/30 01:34:15;;;;;;;6.03;0.82;;;;;;;16.48;84.03;102119.88;7355829;19;20112;-65
2023/09/30 01:36:43;;;;;;;7.65;1.10;;;;;;;16.48;84.57;102114.56;7360183;19;20006;-65
2023/09/30 01:39:11;;;;;;;9.95;0.88;;;;;;;16.45;84.38;102112.25;7357902;19;20107;-64
2023/09/30 01:41:40;;;;;;;9.30;1.15;;;;;;;16.42;84.52;102117.84;7357020;19;20509;-64
2023/09/30 01:44:09;;;;;;;12.40;0.85;;;;;;;16.39;84.45;102128.81;7352746;19;20392;-63
2023/09/30 01:46:36;;;;;;;9.30;0.98;;;;;;;16.39;84.87;102120.84;7355138;19;20047;-65
2023/09/30 01:49:03;;;;;;;9.07;0.80;;;;;;;16.35;84.82;102127.47;7357172;19;20469;-64
2023/09/30 01:51:30;;;;;;;11.38;0.90;;;;;;;16.34;85.21;102125.78;7357711;19;20093;-65
2023/09/30 01:53:58;;;;;;;7.68;0.70;;;;;;;16.33;85.21;102124.13;7357081;19;20587;-64
2023/09/30 01:56:25;;;;;;;14.02;1.20;;;;;;;16.35;85.96;102117.69;7356721;19;20232;-64
2023/09/30 01:58:52;;;;;;;9.68;0.70;;;;;;;16.38;85.62;102127.13;7353148;19;20692;-64
2023/09/30 02:01:20;;;;;;;7.50;0.60;;;;;;;16.40;85.62;102123.34;7353549;19;20028;-65
2023/09/30 02:03:47;;;;;;;7.72;0.70;;;;;;;16.41;85.47;102108.22;7356929;19;20042;-65
2023/09/30 02:06:14;;;;;;;7.25;0.60;;;;;;;16.40;85.42;102111.88;7358636;19;20015;-64
2023/09/30 02:08:44;;;;;;;8.73;1.05;;;;;;;16.39;85.19;102108.38;7355510;19;21436;-65
2023/09/30 02:11:13;;;;;;;10.45;1.10;;;;;;;16.39;85.46;102110.22;7358116;19;20014;-64
2023/09/30 02:13:42;;;;;;;7.47;1.25;;;;;;;16.42;86.08;102109.88;7352688;19;20010;-63
2023/09/30 02:16:13;;;;;;;8.63;0.65;;;;;;;16.41;85.85;102121.50;7359515;19;20006;-64
2023/09/30 02:18:45;;;;;;;10.70;0.95;;;;;;;16.42;85.74;102110.72;7355324;19;20034;-66
2023/09/30 02:21:12;;;;;;;10.40;0.77;;;;;;;16.41;85.84;102122.31;7358816;19;20037;-64
2023/09/30 02:23:40;;;;;;;9.63;0.80;;;;;;;16.40;86.13;102120.69;7355467;19;20324;-65
2023/09/30 02:26:07;;;;;;;9.10;0.80;;;;;;;16.37;85.78;102118.31;7355101;19;20030;-66
2023/09/30 02:28:34;;;;;;;11.10;1.08;;;;;;;16.35;86.31;102115.03;7353265;19;20403;-66
2023/09/30 02:31:01;;;;;;;8.05;0.50;;;;;;;16.33;86.15;102102.88;7357489;19;20010;-64
2023/09/30 02:33:29;;;;;;;8.30;0.70;;;;;;;16.31;86.06;102103.00;7356645;19;20017;-64
2023/09/30 02:35:57;;;;;;;8.35;0.55;;;;;;;16.31;86.32;102097.69;7357102;19;20037;-66
2023/09/30 02:38:25;;;;;;;9.75;0.80;;;;;;;16.30;86.00;102101.38;7357617;19;20045;-65
2023/09/30 02:40:54;;;;;;;11.77;0.80;;;;;;;16.29;86.29;102094.41;7356151;19;20018;-65
2023/09/30 02:43:21;;;;;;;9.10;0.80;;;;;;;16.30;86.49;102095.22;7351258;19;20029;-65
2023/09/30 02:45:48;;;;;;;7.88;0.73;;;;;;;16.26;86.33;102100.84;7359191;19;20039;-65
2023/09/30 02:48:15;;;;;;;8.88;0.60;;;;;;;16.22;86.73;102102.16;7352468;19;20024;-64
2023/09/30 02:50:44;;;;;;;8.07;0.80;;;;;;;16.18;87.03;102103.47;7354857;19;20018;-65
2023/09/30 02:53:13;;;;;;;8.57;0.70;;;;;;;16.17;87.05;102093.81;7355491;19;20038;-64
2023/09/30 02:55:41;;;;;;;11.75;0.80;;;;;;;16.17;86.66;102085.84;7355981;19;20532;-66
2023/09/30 02:58:08;;;;;;;11.95;1.50;;;;;;;16.20;87.56;102084.72;7351469;19;20302;-65
2023/09/30 03:00:37;;;;;;;12.82;1.60;;;;;;;16.16;87.25;102070.91;7354815;19;21657;-64
2023/09/30 03:03:05;;;;;;;9.48;0.57;;;;;;;16.08;87.23;102070.88;7356556;19;20007;-65
2023/09/30 03:05:33;;;;;;;6.80;0.60;;;;;;;16.04;87.35;102053.59;7355690;19;20346;-65
2023/09/30 03:08:01;;;;;;;12.65;0.90;;;;;;;16.03;87.65;102043.13;7355330;19;20006;-65
2023/09/30 03:10:28;;;;;;;9.63;2.30;;;;;;;16.04;88.12;102053.59;7354337;19;20042;-65
2023/09/30 03:13:01;;;;;;;12.45;1.00;;;;;;;16.02;88.01;102060.03;7348539;19;20065;-64
2023/09/30 03:15:30;;;;;;;;;;;;;;;15.96;88.27;102073.94;7355989;19;20018;-63
2023/09/30 03:17:59;;;;;;;6.88;0.63;;;;;;;15.91;88.48;102071.75;7353439;19;19919;-65
2023/09/30 03:20:27;;;;;;;9.15;0.85;;;;;;;15.91;88.46;102062.97;7356533;19;20434;-65
2023/09/30 03:22:54;;;;;;;7.30;0.80;;;;;;;15.95;88.94;102067.00;7353506;19;20027;-64
2023/09/30 03:25:22;;;;;;;11.68;0.88;;;;;;;15.94;88.93;102076.78;7354199;19;20087;-65
2023/09/30 03:27:49;;;;;;;10.35;0.85;;;;;;;15.93;89.04;102082.22;7352316;19;20024;-63
2023/09/30 03:30:19;;;;;;;7.95;0.93;;;;;;;15.95;89.32;102074.97;7355521;19;20363;-64
2023/09/30 03:32:47;;;;;;;12.35;0.80;;;;;;;15.96;89.89;102074.78;7352320;19;20046;-65
2023/09/30 03:35:16;;;;;;;11.13;0.95;;;;;;;15.97;89.27;102065.84;7357857;19;20022;-64
2023/09/30 03:37:46;;;;;;;11.65;0.93;;;;;;;16.00;88.96;102078.78;7351489;19;20027;-64
2023/09/30 03:40:19;;;;;;;12.90;0.98;;;;;;;16.00;88.65;102083.28;7353630;19;20363;-64
2023/09/30 03:42:50;;;;;;;12.50;0.93;;;;;;;15.97;88.35;102091.53;7349258;19;20014;-64
2023/09/30 03:45:18;;;;;;;10.10;0.70;;;;;;;15.93;88.32;102088.38;7353515;19;20018;-64
2023/09/30 03:47:48;;;;;;;12.35;0.70;;;;;;;15.93;89.29;102087.53;7352212;19;20011;-66
2023/09/30 03:50:16;;;;;;;12.98;0.75;;;;;;;15.92;89.71;102086.72;7350295;19;20015;-64
2023/09/30 03:52:44;;;;;;;10.48;0.90;;;;;;;15.92;89.14;102089.38;7354525;19;21591;-64
2023/09/30 03:55:15;;;;;;;10.27;0.60;;;;;;;15.95;88.98;102090.88;7357050;19;20010;-65
2023/09/30 03:57:47;;;;;;;9.57;0.70;;;;;;;15.95;88.61;102080.28;7350231;19;20011;-65
2023/09/30 04:00:18;;;;;;;11.80;0.55;;;;;;;15.95;88.60;102074.97;7354244;19;20019;-65
2023/09/30 04:02:49;;;;;;;8.15;0.93;;;;;;;15.99;88.53;102068.34;7351743;19;20022;-66
2023/09/30 04:05:18;;;;;;;12.50;1.17;;;;;;;15.96;89.11;102060.66;7353557;19;20023;-66
2023/09/30 04:07:46;;;;;;;8.38;0.60;;;;;;;15.95;89.69;102067.81;7352911;19;20081;-65
2023/09/30 04:10:14;;;;;;;7.55;0.65;;;;;;;15.93;89.22;102074.28;7351978;19;20035;-65
2023/09/30 04:12:42;;;;;;;8.90;0.65;;;;;;;15.88;89.06;102066.78;7349375;19;20014;-65
2023/09/30 04:15:12;;;;;;;7.82;0.65;;;;;;;15.86;89.27;102078.53;7353697;19;20029;-66
2023/09/30 04:17:39;;;;;;;10.10;0.90;;;;;;;15.87;89.58;102077.53;7352003;19;20510;-66
2023/09/30 04:20:10;;;;;;;12.80;0.80;;;;;;;15.89;89.46;102076.41;7352883;19;20013;-65
2023/09/30 04:22:38;;;;;;;8.27;0.60;;;;;;;15.88;89.23;102069.44;7352519;19;20018;-66
2023/09/30 04:25:08;;;;;;;8.02;0.75;;;;;;;15.90;89.37;102059.47;7359124;19;20047;-65
2023/09/30 04:27:37;;;;;;;7.18;0.50;;;;;;;15.93;89.25;102063.66;7355962;19;20020;-66
2023/09/30 04:30:08;;;;;;;12.98;0.90;;;;;;;15.90;88.93;102062.13;7355857;19;20006;-66
2023/09/30 04:32:36;;;;;;;11.88;0.70;;;;;;;15.83;88.26;102063.75;7357926;19;20573;-65
2023/09/30 04:35:05;;;;;;;9.25;0.63;;;;;;;15.79;88.94;102060.59;7359691;19;20018;-66
2023/09/30 04:37:32;;;;;;;9.00;1.38;;;;;;;15.75;89.27;102058.38;7358342;19;20401;-65
2023/09/30 04:39:59;;;;;;;24.00;8.30;;;;;;;15.74;89.88;102057.59;7363254;19;20047;-66
2023/09/30 04:42:26;;;;;;;21.30;5.40;;;;;;;15.76;90.64;102049.44;7355218;19;20759;-66
2023/09/30 04:44:55;;;;;;;22.58;4.97;;;;;;;15.75;90.26;102050.41;7360464;19;20014;-65
2023/09/30 04:47:23;;;;;;;19.35;3.22;;;;;;;15.77;90.06;102064.38;7358420;19;20732;-66
2023/09/30 04:49:51;;;;;;;10.43;1.48;;;;;;;15.76;89.74;102049.44;7358875;19;20016;-65
2023/09/30 04:52:18;;;;;;;11.85;0.70;;;;;;;15.76;90.05;102046.78;7356175;19;20041;-66
2023/09/30 04:54:45;;;;;;;6.03;1.05;;;;;;;15.76;89.96;102055.59;7362454;19;20494;-66
2023/09/30 04:57:13;;;;;;;10.00;0.80;;;;;;;15.77;89.72;102064.38;7356518;19;20298;-65
2023/09/30 04:59:40;;;;;;;10.73;0.85;;;;;;;15.79;90.50;102067.72;7359550;19;20760;-66
2023/09/30 05:02:07;;;;;;;9.02;2.15;;;;;;;15.79;90.17;102079.19;7359965;19;20017;-66
2023/09/30 05:04:34;;;;;;;11.02;0.73;;;;;;;15.81;89.93;102086.97;7359687;19;20020;-65
2023/09/30 05:07:01;;;;;;;7.07;0.57;;;;;;;15.79;89.77;102084.50;7357405;19;20505;-65
2023/09/30 05:09:28;;;;;;;10.80;0.73;;;;;;;15.82;89.97;102085.97;7359553;19;20054;-65
2023/09/30 05:11:55;;;;;;;13.07;1.20;;;;;;;15.76;90.23;102087.44;7356515;19;20832;-66
2023/09/30 05:14:22;;;;;;;12.82;0.80;;;;;;;15.78;90.62;102090.78;7357920;19;20013;-66
2023/09/30 05:16:49;;;;;;;7.63;1.25;;;;;;;15.78;90.46;102092.59;7358117;19;20006;-66
2023/09/30 05:19:16;;;;;;;9.82;1.02;;;;;;;15.80;90.56;102079.97;7361289;19;20016;-66
2023/09/30 05:21:44;;;;;;;13.98;0.75;;;;;;;15.78;90.24;102072.19;7358084;19;20020;-65
2023/09/30 05:24:12;;;;;;;10.40;0.60;;;;;;;15.78;90.07;102069.53;7356598;19;20018;-66
2023/09/30 05:26:39;;;;;;;9.90;0.60;;;;;;;15.76;90.22;102076.81;7358026;19;20022;-66
2023/09/30 05:29:07;;;;;;;10.05;0.70;;;;;;;15.74;90.39;102070.00;7356124;19;20480;-65
2023/09/30 05:31:34;;;;;;;6.63;0.60;;;;;;;15.70;90.67;102066.81;7358154;19;20029;-66
2023/09/30 05:34:01;;;;;;;8.88;0.80;;;;;;;15.66;90.70;102072.59;7358957;19;20511;-65
2023/09/30 05:36:29;;;;;;;7.82;0.70;;;;;;;15.60;90.77;102065.25;7359830;19;20027;-65
2023/09/30 05:38:57;;;;;;;11.07;1.00;;;;;;;15.54;90.97;102066.72;7360424;19;20138;-66
2023/09/30 05:41:24;;;;;;;12.60;0.60;;;;;;;15.53;91.41;102074.81;7358010;19;20014;-67
2023/09/30 05:43:53;;;;;;;8.82;0.70;;;;;;;15.52;91.78;102084.59;7355553;19;20268;-65
2023/09/30 05:46:21;;;;;;;10.63;0.75;;;;;;;15.52;91.73;102079.31;7359119;19;20042;-65
2023/09/30 05:48:48;;;;;;;8.60;0.55;;;;;;;15.51;91.94;102082.06;7357812;19;20017;-66
2023/09/30 05:51:15;;;;;;;8.55;0.70;;;;;;;15.49;92.31;102066.28;7357916;19;21519;-68
2023/09/30 05:53:42;;;;;;;12.77;0.88;;;;;;;15.46;92.01;102069.25;7352376;19;20007;-66
2023/09/30 05:56:14;;;;;;;11.05;0.98;;;;;;;15.43;92.21;102069.59;7357971;19;20111;-66
2023/09/30 05:58:42;;;;;;;9.82;0.70;;;;;;;15.43;92.33;102077.53;7355910;19;20451;-66
2023/09/30 06:01:11;;;;;;;13.18;1.40;;;;;;;15.43;92.83;102076.72;7360076;19;21679;-65
2023/09/30 06:03:39;;;;;;;9.23;0.50;;;;;;;15.42;92.42;102081.19;7354014;19;20090;-66
2023/09/30 06:06:12;;;;;;;10.05;0.60;;;;;;;15.41;92.64;102087.47;7360084;19;20603;-65
2023/09/30 06:08:39;;;;;;;13.40;1.05;;;;;;;15.45;93.01;102107.38;7352156;19;20018;-65
2023/09/30 06:11:06;;;;;;;6.13;0.63;;;;;;;15.45;92.69;102106.53;7356083;19;20026;-66
2023/09/30 06:13:34;;;;;;;12.48;0.80;;;;;;;15.41;92.51;102101.56;7354812;19;20035;-65
2023/09/30 06:16:02;;;;;;;16.30;1.48;;;;;;;15.40;92.88;102104.34;7358916;19;20031;-66
2023/09/30 06:18:29;;;;;;;9.02;0.80;;;;;;;15.43;92.99;102106.72;7354791;19;20010;-67
2023/09/30 06:20:57;;;;;;;10.60;0.70;;;;;;;15.46;92.88;102110.88;7359748;19;20054;-67
2023/09/30 06:23:24;;;;;;;9.77;1.02;;;;;;;15.49;93.81;102119.34;7358052;19;21684;-65
2023/09/30 06:25:52;;;;;;;6.18;0.60;;;;;;;15.50;94.03;102118.38;7355023;19;20091;-64
2023/09/30 06:28:25;;;;;;;8.07;1.05;;;;;;;15.48;93.57;102116.88;7350564;19;20106;-65
2023/09/30 06:30:52;;;;;;;9.73;0.70;;;;;;;15.54;93.19;102121.59;7358703;19;20291;-64
2023/09/30 06:33:21;;;;;;;13.68;0.90;;;;;;;15.53;92.85;102117.28;7356796;19;20502;-65
2023/09/30 06:35:50;;;;;;;10.48;0.65;;;;;;;15.53;92.45;102111.97;7355494;19;20652;-65
2023/09/30 06:38:19;;;;;;;9.50;0.80;;;;;;;15.52;92.64;102110.28;7356023;19;20336;-67
2023/09/30 06:40:47;;;;;;;15.93;1.13;;;;;;;15.55;92.53;102117.94;7353838;19;20014;-66
2023/09/30 06:43:15;;;;;;;9.27;0.70;;;;;;;15.59;92.95;102125.47;7352598;19;20869;-66
2023/09/30 06:45:43;;;;;;;7.90;0.60;;;;;;;15.59;92.67;102133.44;7354042;19;20018;-65
2023/09/30 06:48:15;;;;;;;7.95;1.30;;;;;;;15.59;92.62;102137.91;7354205;19;20226;-66
2023/09/30 06:50:45;;;;;;;8.50;0.80;;;;;;;15.61;92.29;102141.22;7355716;19;20086;-66
2023/09/30 06:53:13;;;;;;;10.25;0.70;;;;;;;15.59;92.16;102130.78;7352420;19;20460;-66
2023/09/30 06:55:40;;;;;;;10.40;1.23;;;;;;;15.62;92.30;102133.09;7354172;19;20018;-65
2023/09/30 06:58:08;;;;;;;14.95;0.80;;;;;;;15.66;91.99;102123.84;7353825;19;20098;-67
2023/09/30 07:00:36;;;;;;;12.95;0.70;;;;;;;15.63;91.53;102134.78;7356281;19;20014;-66
2023/09/30 07:03:04;;;;;;;8.02;0.90;;;;;;;15.63;91.71;102137.44;7358204;19;20006;-66
2023/09/30 07:05:31;;;;;;;14.25;0.98;;;;;;;15.59;91.80;102135.25;7355655;19;20367;-65
2023/09/30 07:07:59;;;;;;;10.35;1.23;;;;;;;15.57;92.45;102132.75;7353206;19;20019;-65
2023/09/30 07:10:26;;;;;;;11.23;1.05;;;;;;;15.59;92.83;102129.94;7356753;19;20016;-68
2023/09/30 07:12:53;;;;;;;8.13;0.70;;;;;;;15.61;92.66;102122.63;7355063;19;20022;-67
2023/09/30 07:15:20;;;;;;;11.48;1.25;;;;;;;15.64;92.67;102135.63;7353524;19;20021;-66
2023/09/30 07:17:47;;;;;;;11.32;0.82;;;;;;;15.66;92.61;102145.06;7356706;19;20022;-66
2023/09/30 07:20:15;;;;;;;8.75;1.33;;;;;;;15.68;92.33;102152.91;7353664;19;20302;-65
2023/09/30 07:22:42;;;;;;;8.10;0.70;;;;;;;15.70;91.76;102141.13;7356764;19;20018;-66
2023/09/30 07:25:25;;;;;;;17.58;2.17;;;;;;;15.77;91.27;102130.72;7354602;19;20021;-65
2023/09/30 07:27:52;;;;;;;16.13;2.05;;;;;;;15.78;91.08;102141.22;7354227;19;20051;-66
2023/09/30 07:30:19;;;;;;;8.90;1.00;;;;;;;15.79;90.57;102160.63;7354958;19;20029;-65
2023/09/30 07:32:46;;;;;;;10.55;0.80;;;;;;;15.80;90.76;102156.94;7356680;19;20010;-65
2023/09/30 07:35:15;;;;;;;7.72;0.70;;;;;;;15.78;90.68;102149.16;7357158;19;20019;-65
2023/09/30 07:37:43;;;;;;;7.68;0.60;;;;;;;15.82;90.78;102149.69;7356403;19;20026;-65
2023/09/30 07:40:12;;;;;;;9.80;0.70;;;;;;;15.83;90.97;102164.63;7354812;19;20545;-65
2023/09/30 07:42:39;;;;;;;9.38;0.68;;;;;;;15.88;91.23;102174.78;7351380;19;20362;-65
2023/09/30 07:45:08;;;;;;;11.55;1.08;;;;;;;15.92;91.19;102163.69;7351357;19;20015;-66
2023/09/30 07:47:36;;;;;;;9.57;0.80;;;;;;;15.96;91.26;102156.25;7352285;19;20015;-66
2023/09/30 07:50:09;;;;;;;12.25;0.95;;;;;;;16.00;90.78;102158.44;7355745;19;20033;-66
2023/09/30 07:52:39;;;;;;;12.73;0.85;;;;;;;16.00;90.27;102168.25;7350086;19;20014;-67
2023/09/30 07:55:08;;;;;;;11.48;0.60;;;;;;;15.99;89.88;102172.72;7352697;19;20481;-65
2023/09/30 07:57:36;;;;;;;10.82;1.33;;;;;;;16.02;90.05;102166.25;7354186;19;20426;-66
2023/09/30 08:00:08;;;;;;;14.98;1.25;;;;;;;16.06;90.06;102163.13;7357508;19;20011;-65
2023/09/30 08:02:37;;;;;;;8.50;0.85;;;;;;;16.11;90.00;102163.50;7359685;19;20475;-66
2023/09/30 08:05:05;;;;;;;10.18;1.00;;;;;;;16.11;89.48;102168.81;7360611;19;20022;-65
2023/09/30 08:07:34;;;;;;;11.93;0.80;;;;;;;16.13;89.74;102163.34;7358403;19;20018;-65
2023/09/30 08:10:04;;;;;;;9.57;0.95;;;;;;;16.12;89.60;102181.09;7360851;19;20510;-66
2023/09/30 08:12:33;;;;;;;8.02;1.02;;;;;;;16.13;90.00;102177.47;7358654;19;20015;-65
2023/09/30 08:15:03;;;;;;;8.57;1.27;;;;;;;16.19;90.28;102181.31;7358493;19;20022;-67
2023/09/30 08:17:30;;;;;;;14.32;0.73;;;;;;;16.23;89.40;102183.50;7359691;19;20698;-65
2023/09/30 08:19:58;;;;;;;10.27;0.90;;;;;;;16.29;89.10;102178.56;7360034;19;20030;-65
2023/09/30 08:22:27;;;;;;;11.95;1.60;;;;;;;16.32;88.74;102184.38;7361902;19;20011;-66
2023/09/30 08:24:55;;;;;;;14.23;1.38;;;;;;;16.36;88.64;102192.88;7362584;19;20035;-66
2023/09/30 08:27:24;;;;;;;7.97;0.80;;;;;;;16.42;88.64;102185.09;7357277;19;20101;-66
2023/09/30 08:29:51;;;;;;;9.27;0.75;;;;;;;16.44;88.57;102196.44;7355846;19;20029;-66
2023/09/30 08:32:19;;;;;;;10.18;0.73;;;;;;;16.51;89.00;102202.75;7356433;19;20014;-66
2023/09/30 08:34:46;;;;;;;11.35;0.60;;;;;;;16.56;88.92;102197.81;7361823;19;20014;-65
2023/09/30 08:37:13;;;;;;;10.85;0.65;;;;;;;16.57;87.82;102188.84;7360608;19;20025;-66
2023/09/30 08:39:40;;;;;;;13.73;0.90;;;;;;;16.62;87.64;102180.44;7352983;19;20006;-67
2023/09/30 08:42:11;;;;;;;9.32;0.70;;;;;;;16.64;86.49;102178.47;7354578;19;20022;-66
2023/09/30 08:44:40;;;;;;;9.88;1.35;;;;;;;16.70;86.85;102169.84;7355944;19;21644;-66
2023/09/30 08:47:09;;;;;;;6.63;0.52;;;;;;;16.74;86.00;102178.34;7358298;19;20590;-66
2023/09/30 08:49:39;;;;;;;8.57;0.60;;;;;;;16.78;86.15;102183.16;7360927;19;20019;-65
2023/09/30 08:52:09;;;;;;;11.20;0.93;;;;;;;16.84;86.55;102193.16;7360090;19;20033;-65
2023/09/30 08:54:36;;;;;;;8.68;0.65;;;;;;;16.86;86.53;102185.88;7356171;19;20047;-66
2023/09/30 08:57:05;;;;;;;10.75;0.90;;;;;;;16.90;85.86;102167.75;7355886;19;20436;-66
2023/09/30 08:59:35;;;;;;;10.85;0.80;;;;;;;16.92;85.20;102173.75;7359846;19;20022;-65
2023/09/30 09:02:03;;;;;;;9.32;0.70;;;;;;;16.97;85.28;102161.63;7355249;19;20015;-66
2023/09/30 09:04:31;;;;;;;11.48;0.80;;;;;;;17.02;84.38;102161.97;7360393;19;20025;-65
2023/09/30 09:06:59;;;;;;;11.20;0.90;;;;;;;17.07;84.99;102175.63;7360116;19;20025;-66
2023/09/30 09:09:26;;;;;;;8.63;0.60;;;;;;;17.11;84.97;102176.16;7356007;19;20298;-65
2023/09/30 09:11:54;;;;;;;9.38;1.15;;;;;;;17.11;84.34;102181.47;7356041;19;20926;-66
2023/09/30 09:14:38;;;;;;;13.38;0.93;;;;;;;17.18;84.69;102174.50;7355486;19;20014;-65
2023/09/30 09:17:07;;;;;;;13.02;0.80;;;;;;;17.23;84.41;102168.69;7356523;19;20010;-66
2023/09/30 09:19:35;;;;;;;12.80;0.80;;;;;;;17.27;83.79;102146.09;7357760;19;20014;-66
2023/09/30 09:22:06;;;;;;;9.23;0.57;;;;;;;17.32;83.33;102136.59;7356875;19;20235;-66
2023/09/30 09:24:35;;;;;;;9.60;0.90;;;;;;;17.43;80.99;102148.75;7358133;19;20043;-66
2023/09/30 09:27:12;;;;;;;10.70;0.60;;;;;;;17.52;81.36;102150.44;7354469;19;20482;-67
2023/09/30 09:29:42;;;;;;;10.77;0.55;;;;;;;17.59;81.02;102159.44;7359733;19;21817;-66
2023/09/30 09:32:13;;;;;;;11.80;0.55;;;;;;;17.66;79.87;102164.94;7360309;19;20359;-66
2023/09/30 09:34:41;;;;;;;10.20;0.68;;;;;;;17.70;79.21;102161.78;7360808;19;20481;-65
2023/09/30 09:37:17;;;;;;;6.88;0.50;;;;;;;17.73;79.08;102157.94;7358116;19;20015;-66
2023/09/30 09:39:55;;;;;;;10.80;0.50;;;;;;;17.73;77.94;102153.44;7360438;19;20015;-66
2023/09/30 09:42:25;;;;;;;8.90;0.60;;;;;;;17.76;77.35;102136.31;7358617;19;20339;-66
2023/09/30 09:45:02;;;;;;;10.32;0.70;;;;;;;17.78;77.01;102131.66;7353066;19;20017;-66
2023/09/30 09:47:32;;;;;;;7.15;0.55;;;;;;;17.83;76.14;102130.16;7359845;19;20142;-65
2023/09/30 09:50:02;;;;;;;8.27;0.60;;;;;;;17.87;75.71;102126.19;7357608;19;20014;-65
2023/09/30 09:52:31;;;;;;;7.32;0.60;;;;;;;17.92;74.94;102123.84;7356875;19;20082;-66
2023/09/30 09:54:58;;;;;;;7.65;0.50;;;;;;;17.98;73.52;102110.84;7359476;19;21094;-65
2023/09/30 09:57:27;;;;;;;10.93;0.45;;;;;;;18.06;72.26;102122.31;7350646;19;20037;-66
2023/09/30 09:59:56;;;;;;;10.05;0.60;;;;;;;18.09;71.85;102124.63;7356761;19;20030;-65
2023/09/30 10:02:27;;;;;;;7.00;0.60;;;;;;;18.13;72.56;102136.63;7354245;19;20121;-65
2023/09/30 10:04:56;;;;;;;6.70;0.50;;;;;;;18.17;72.58;102147.75;7355944;19;20022;-65
2023/09/30 10:07:37;;;;;;;5.20;0.40;;;;;;;18.22;72.44;102159.56;7356640;19;20594;-66
2023/09/30 10:10:13;;;;;;;8.38;0.60;;;;;;;18.28;72.09;102164.22;7358070;19;20037;-65
2023/09/30 10:12:41;;;;;;;4.97;0.60;;;;;;;18.35;70.55;102149.19;7354202;19;20426;-66
2023/09/30 10:15:25;;;;;;;6.70;0.57;;;;;;;18.42;70.59;102141.38;7333465;19;20026;-65
2023/09/30 10:18:03;;;;;;;9.30;0.60;;;;;;;18.46;70.04;102139.19;7353120;19;20034;-66
2023/09/30 10:20:36;;;;;;;5.40;0.47;;;;;;;18.48;69.67;102118.53;7352015;19;20037;-66
2023/09/30 10:23:19;;;;;;;6.18;0.60;;;;;;;18.51;70.14;102116.34;7358514;19;20099;-65
2023/09/30 10:25:49;;;;;;;6.47;0.40;;;;;;;18.63;71.14;102127.50;7358936;19;20050;-66
2023/09/30 10:28:36;;;;;;;5.15;0.52;;;;;;;18.68;70.92;102136.63;7354251;19;20051;-64
2023/09/30 10:31:12;;;;;;;7.32;0.50;;;;;;;18.71;69.87;102133.59;7357295;19;20474;-66
2023/09/30 10:33:59;;;;;;;4.38;0.30;;;;;;;18.74;70.33;102143.91;7354316;19;20021;-66
2023/09/30 10:36:28;;;;;;;7.40;0.40;;;;;;;18.76;69.83;102143.75;7356783;19;20625;-66
2023/09/30 10:38:56;;;;;;;9.02;0.65;;;;;;;18.77;69.93;102130.25;7354941;19;20638;-66
2023/09/30 10:41:40;;;;;;;7.47;0.65;;;;;;;18.84;70.36;102127.72;7354247;19;20904;-65
2023/09/30 10:44:28;;;;;;;4.85;0.35;;;;;;;18.84;69.55;102137.56;7352981;19;20019;-65
2023/09/30 10:46:59;;;;;;;7.03;0.38;;;;;;;18.83;69.61;102123.38;7355083;19;20029;-65
2023/09/30 10:49:27;;;;;;;11.32;0.57;;;;;;;18.82;69.71;102126.22;7355923;19;20026;-66
2023/09/30 10:51:56;;;;;;;6.22;0.60;;;;;;;18.82;69.45;102139.56;7355858;19;20038;-65
2023/09/30 10:54:26;;;;;;;12.40;0.60;;;;;;;18.77;68.14;102129.41;7355867;19;20033;-66
2023/09/30 10:56:54;;;;;;;4.53;0.30;;;;;;;18.79;69.04;102119.41;7351435;19;20088;-65
2023/09/30 10:59:23;;;;;;;8.27;0.40;;;;;;;18.77;68.48;102121.41;7346254;19;20010;-65
2023/09/30 11:01:51;;;;;;;5.32;0.22;;;;;;;18.79;68.75;102122.09;7353842;19;20046;-66
2023/09/30 11:04:19;;;;;;;6.25;0.50;;;;;;;18.78;69.27;102109.75;7353966;19;20042;-65
2023/09/30 11:06:49;;;;;;;4.88;0.52;;;;;;;18.84;69.46;102105.56;7353828;19;20031;-64
2023/09/30 11:09:19;;;;;;;9.75;0.55;;;;;;;18.87;68.73;102107.84;7352543;19;20105;-64
2023/09/30 11:11:49;;;;;;;6.32;0.70;;;;;;;18.92;69.23;102111.66;7350992;19;20015;-65
2023/09/30 11:14:21;;;;;;;4.45;0.55;;;;;;;18.94;69.73;102098.16;7351823;19;20282;-65
2023/09/30 11:16:51;;;;;;;;;;;;;;;18.98;68.49;102105.63;7351232;19;20457;-65
2023/09/30 11:19:22;;;;;;;1.95;0.40;;;;;;;18.97;67.77;102089.78;7357630;19;19929;-67
2023/09/30 11:21:50;;;;;;;8.65;0.50;;;;;;;18.98;68.09;102086.13;7358366;19;20014;-64
2023/09/30 11:24:18;;;;;;;4.00;0.50;;;;;;;19.05;68.69;102084.38;7355759;19;20085;-65
2023/09/30 11:26:46;;;;;;;3.22;0.40;;;;;;;19.07;67.63;102082.38;7353661;19;20018;-66
2023/09/30 11:29:16;;;;;;;5.15;0.40;;;;;;;19.11;66.46;102091.69;7351445;19;20015;-65